sensor_id;sensor_type;location;lat;lon;timestamp;P1;P2;P0
40371;PMS5003;28564;53.346;-6.554;2024-02-26T00:00:08;10;10;
40371;PMS5003;28564;53.346;-6.554;2024-02-26T00:02:36;15;13;
40371;PMS5003;28564;53.346;-6.554;2024-02-26T00:05:04;15;11;
40371;PMS5003;28564;53.346;-6.554;2024-02-26T00:07:32;13;13;
40371;PMS5003;28564;53.346;-6.554;2024-02-26T00:09:59;13;12;
40371;PMS5003;28564;53.346;-6.554;2024-02-26T00:12:27;12;12;
40371;PMS5003;28564;53.346;-6.554;2024-02-26T00:14:53;14;14;
40371;PMS5003;28564;53.346;-6.554;2024-02-26T00:17:20;18;14;
40371;PMS5003;28564;53.346;-6.554;2024-02-26T00:19:48;18;14;
40371;PMS5003;28564;53.346;-6.554;2024-02-26T00:22:15;17;14;
40371;PMS5003;28564;53.346;-6.554;2024-02-26T00:24:42;17;13;
40371;PMS5003;28564;53.346;-6.554;2024-02-26T00:27:09;11;11;
40371;PMS5003;28564;53.346;-6.554;2024-02-26T00:29:36;10;9;
40371;PMS5003;28564;53.346;-6.554;2024-02-26T00:32:04;18;16;
40371;PMS5003;28564;53.346;-6.554;2024-02-26T00:34:32;16;13;
40371;PMS5003;28564;53.346;-6.554;2024-02-26T00:36:59;13;12;
40371;PMS5003;28564;53.346;-6.554;2024-02-26T00:39:26;17;13;
40371;PMS5003;28564;53.346;-6.554;2024-02-26T00:41:54;11;9;
40371;PMS5003;28564;53.346;-6.554;2024-02-26T00:44:21;18;13;
40371;PMS5003;28564;53.346;-6.554;2024-02-26T00:46:49;16;13;
40371;PMS5003;28564;53.346;-6.554;2024-02-26T00:49:16;17;13;
40371;PMS5003;28564;53.346;-6.554;2024-02-26T00:51:43;17;12;
40371;PMS5003;28564;53.346;-6.554;2024-02-26T00:54:10;17;17;
40371;PMS5003;28564;53.346;-6.554;2024-02-26T00:56:37;11;11;
40371;PMS5003;28564;53.346;-6.554;2024-02-26T00:59:05;12;11;
40371;PMS5003;28564;53.346;-6.554;2024-02-26T01:01:32;14;13;
40371;PMS5003;28564;53.346;-6.554;2024-02-26T01:04:00;11;10;
40371;PMS5003;28564;53.346;-6.554;2024-02-26T01:06:27;16;16;
40371;PMS5003;28564;53.346;-6.554;2024-02-26T01:08:55;11;11;
40371;PMS5003;28564;53.346;-6.554;2024-02-26T01:11:22;10;10;
40371;PMS5003;28564;53.346;-6.554;2024-02-26T01:13:50;12;12;
40371;PMS5003;28564;53.346;-6.554;2024-02-26T01:16:18;13;10;
40371;PMS5003;28564;53.346;-6.554;2024-02-26T01:18:45;14;13;
40371;PMS5003;28564;53.346;-6.554;2024-02-26T01:21:13;11;11;
40371;PMS5003;28564;53.346;-6.554;2024-02-26T01:23:40;11;11;
40371;PMS5003;28564;53.346;-6.554;2024-02-26T01:26:08;16;12;
40371;PMS5003;28564;53.346;-6.554;2024-02-26T01:28:36;11;8;
40371;PMS5003;28564;53.346;-6.554;2024-02-26T01:31:03;16;12;
40371;PMS5003;28564;53.346;-6.554;2024-02-26T01:33:31;10;10;
40371;PMS5003;28564;53.346;-6.554;2024-02-26T01:35:58;10;8;
40371;PMS5003;28564;53.346;-6.554;2024-02-26T01:38:25;13;11;
40371;PMS5003;28564;53.346;-6.554;2024-02-26T01:40:52;9;9;
40371;PMS5003;28564;53.346;-6.554;2024-02-26T01:43:20;10;9;
40371;PMS5003;28564;53.346;-6.554;2024-02-26T01:45:47;13;8;
40371;PMS5003;28564;53.346;-6.554;2024-02-26T01:48:15;11;9;
40371;PMS5003;28564;53.346;-6.554;2024-02-26T01:50:42;10;10;
40371;PMS5003;28564;53.346;-6.554;2024-02-26T01:53:09;9;8;
40371;PMS5003;28564;53.346;-6.554;2024-02-26T01:55:37;8;8;
40371;PMS5003;28564;53.346;-6.554;2024-02-26T01:58:04;9;9;
40371;PMS5003;28564;53.346;-6.554;2024-02-26T02:00:31;12;11;
40371;PMS5003;28564;53.346;-6.554;2024-02-26T02:02:59;13;10;
40371;PMS5003;28564;53.346;-6.554;2024-02-26T02:05:27;9;8;
40371;PMS5003;28564;53.346;-6.554;2024-02-26T02:07:55;12;10;
40371;PMS5003;28564;53.346;-6.554;2024-02-26T02:10:23;8;8;
40371;PMS5003;28564;53.346;-6.554;2024-02-26T02:12:51;9;9;
40371;PMS5003;28564;53.346;-6.554;2024-02-26T02:15:18;9;6;
40371;PMS5003;28564;53.346;-6.554;2024-02-26T02:17:46;6;6;
40371;PMS5003;28564;53.346;-6.554;2024-02-26T02:20:15;10;10;
40371;PMS5003;28564;53.346;-6.554;2024-02-26T02:22:43;9;9;
40371;PMS5003;28564;53.346;-6.554;2024-02-26T02:25:10;10;10;
40371;PMS5003;28564;53.346;-6.554;2024-02-26T02:27:38;9;8;
40371;PMS5003;28564;53.346;-6.554;2024-02-26T02:30:06;9;5;
40371;PMS5003;28564;53.346;-6.554;2024-02-26T02:32:34;10;9;
40371;PMS5003;28564;53.346;-6.554;2024-02-26T02:35:04;8;8;
40371;PMS5003;28564;53.346;-6.554;2024-02-26T02:37:32;8;5;
40371;PMS5003;28564;53.346;-6.554;2024-02-26T02:40:00;9;6;
40371;PMS5003;28564;53.346;-6.554;2024-02-26T02:42:27;6;5;
40371;PMS5003;28564;53.346;-6.554;2024-02-26T02:44:55;10;10;
40371;PMS5003;28564;53.346;-6.554;2024-02-26T02:47:22;6;6;
40371;PMS5003;28564;53.346;-6.554;2024-02-26T02:49:49;5;4;
40371;PMS5003;28564;53.346;-6.554;2024-02-26T02:52:17;8;7;
40371;PMS5003;28564;53.346;-6.554;2024-02-26T02:54:44;11;8;
40371;PMS5003;28564;53.346;-6.554;2024-02-26T02:57:11;5;5;
40371;PMS5003;28564;53.346;-6.554;2024-02-26T02:59:39;6;6;
40371;PMS5003;28564;53.346;-6.554;2024-02-26T03:02:06;8;5;
40371;PMS5003;28564;53.346;-6.554;2024-02-26T03:04:33;10;9;
40371;PMS5003;28564;53.346;-6.554;2024-02-26T03:07:01;11;8;
40371;PMS5003;28564;53.346;-6.554;2024-02-26T03:09:29;9;5;
40371;PMS5003;28564;53.346;-6.554;2024-02-26T03:11:56;8;6;
40371;PMS5003;28564;53.346;-6.554;2024-02-26T03:14:24;11;8;
40371;PMS5003;28564;53.346;-6.554;2024-02-26T03:16:53;8;8;
40371;PMS5003;28564;53.346;-6.554;2024-02-26T03:19:21;9;5;
40371;PMS5003;28564;53.346;-6.554;2024-02-26T03:21:48;6;5;
40371;PMS5003;28564;53.346;-6.554;2024-02-26T03:24:15;6;5;
40371;PMS5003;28564;53.346;-6.554;2024-02-26T03:26:42;6;4;
40371;PMS5003;28564;53.346;-6.554;2024-02-26T03:29:10;8;5;
40371;PMS5003;28564;53.346;-6.554;2024-02-26T03:31:37;5;5;
40371;PMS5003;28564;53.346;-6.554;2024-02-26T03:34:05;5;5;
40371;PMS5003;28564;53.346;-6.554;2024-02-26T03:36:32;3;3;
40371;PMS5003;28564;53.346;-6.554;2024-02-26T03:38:59;8;5;
40371;PMS5003;28564;53.346;-6.554;2024-02-26T03:41:27;10;8;
40371;PMS5003;28564;53.346;-6.554;2024-02-26T03:43:54;5;5;
40371;PMS5003;28564;53.346;-6.554;2024-02-26T03:46:22;5;5;
40371;PMS5003;28564;53.346;-6.554;2024-02-26T03:48:49;4;4;
40371;PMS5003;28564;53.346;-6.554;2024-02-26T03:51:16;7;4;
40371;PMS5003;28564;53.346;-6.554;2024-02-26T03:53:44;5;4;
40371;PMS5003;28564;53.346;-6.554;2024-02-26T03:56:11;9;7;
40371;PMS5003;28564;53.346;-6.554;2024-02-26T03:58:38;5;5;
40371;PMS5003;28564;53.346;-6.554;2024-02-26T04:01:07;5;3;
40371;PMS5003;28564;53.346;-6.554;2024-02-26T04:03:34;5;4;
40371;PMS5003;28564;53.346;-6.554;2024-02-26T04:06:01;5;5;
40371;PMS5003;28564;53.346;-6.554;2024-02-26T04:08:30;7;5;
40371;PMS5003;28564;53.346;-6.554;2024-02-26T04:10:57;4;4;
40371;PMS5003;28564;53.346;-6.554;2024-02-26T04:13:25;3;3;
40371;PMS5003;28564;53.346;-6.554;2024-02-26T04:15:52;7;5;
40371;PMS5003;28564;53.346;-6.554;2024-02-26T04:18:19;7;5;
40371;PMS5003;28564;53.346;-6.554;2024-02-26T04:20:47;8;3;
40371;PMS5003;28564;53.346;-6.554;2024-02-26T04:23:15;7;4;
40371;PMS5003;28564;53.346;-6.554;2024-02-26T04:25:41;6;5;
40371;PMS5003;28564;53.346;-6.554;2024-02-26T04:28:09;4;4;
40371;PMS5003;28564;53.346;-6.554;2024-02-26T04:30:36;5;4;
40371;PMS5003;28564;53.346;-6.554;2024-02-26T04:33:04;4;4;
40371;PMS5003;28564;53.346;-6.554;2024-02-26T04:35:31;3;2;
40371;PMS5003;28564;53.346;-6.554;2024-02-26T04:37:58;3;3;
40371;PMS5003;28564;53.346;-6.554;2024-02-26T04:40:26;2;2;
40371;PMS5003;28564;53.346;-6.554;2024-02-26T04:42:53;3;3;
40371;PMS5003;28564;53.346;-6.554;2024-02-26T04:45:20;5;3;
40371;PMS5003;28564;53.346;-6.554;2024-02-26T04:47:48;2;2;
40371;PMS5003;28564;53.346;-6.554;2024-02-26T04:50:15;5;4;
40371;PMS5003;28564;53.346;-6.554;2024-02-26T04:52:43;8;4;
40371;PMS5003;28564;53.346;-6.554;2024-02-26T04:55:10;4;4;
40371;PMS5003;28564;53.346;-6.554;2024-02-26T04:57:37;2;2;
40371;PMS5003;28564;53.346;-6.554;2024-02-26T05:00:05;2;2;
40371;PMS5003;28564;53.346;-6.554;2024-02-26T05:02:33;2;2;
40371;PMS5003;28564;53.346;-6.554;2024-02-26T05:05:00;3;2;
40371;PMS5003;28564;53.346;-6.554;2024-02-26T05:07:28;7;3;
40371;PMS5003;28564;53.346;-6.554;2024-02-26T05:09:55;4;4;
40371;PMS5003;28564;53.346;-6.554;2024-02-26T05:12:23;3;2;
40371;PMS5003;28564;53.346;-6.554;2024-02-26T05:14:50;4;4;
40371;PMS5003;28564;53.346;-6.554;2024-02-26T05:17:18;3;3;
40371;PMS5003;28564;53.346;-6.554;2024-02-26T05:19:45;3;3;
40371;PMS5003;28564;53.346;-6.554;2024-02-26T05:22:12;3;3;
40371;PMS5003;28564;53.346;-6.554;2024-02-26T05:24:40;4;4;
40371;PMS5003;28564;53.346;-6.554;2024-02-26T05:27:07;3;2;
40371;PMS5003;28564;53.346;-6.554;2024-02-26T05:29:34;2;2;
40371;PMS5003;28564;53.346;-6.554;2024-02-26T05:32:02;2;2;
40371;PMS5003;28564;53.346;-6.554;2024-02-26T05:34:29;3;2;
40371;PMS5003;28564;53.346;-6.554;2024-02-26T05:36:56;2;2;
40371;PMS5003;28564;53.346;-6.554;2024-02-26T05:39:24;3;3;
40371;PMS5003;28564;53.346;-6.554;2024-02-26T05:41:51;2;2;
40371;PMS5003;28564;53.346;-6.554;2024-02-26T05:44:19;4;2;
40371;PMS5003;28564;53.346;-6.554;2024-02-26T05:46:46;1;1;
40371;PMS5003;28564;53.346;-6.554;2024-02-26T05:49:13;3;2;
40371;PMS5003;28564;53.346;-6.554;2024-02-26T05:51:41;3;2;
40371;PMS5003;28564;53.346;-6.554;2024-02-26T05:54:08;2;2;
40371;PMS5003;28564;53.346;-6.554;2024-02-26T05:56:36;1;1;
40371;PMS5003;28564;53.346;-6.554;2024-02-26T05:59:03;2;2;
40371;PMS5003;28564;53.346;-6.554;2024-02-26T06:01:30;1;1;
40371;PMS5003;28564;53.346;-6.554;2024-02-26T06:03:58;4;2;
40371;PMS5003;28564;53.346;-6.554;2024-02-26T06:06:25;1;1;
40371;PMS5003;28564;53.346;-6.554;2024-02-26T06:08:52;3;2;
40371;PMS5003;28564;53.346;-6.554;2024-02-26T06:11:20;2;1;
40371;PMS5003;28564;53.346;-6.554;2024-02-26T06:13:47;0;0;
40371;PMS5003;28564;53.346;-6.554;2024-02-26T06:16:15;2;1;
40371;PMS5003;28564;53.346;-6.554;2024-02-26T06:18:42;1;1;
40371;PMS5003;28564;53.346;-6.554;2024-02-26T06:21:10;1;1;
40371;PMS5003;28564;53.346;-6.554;2024-02-26T06:23:37;1;1;
40371;PMS5003;28564;53.346;-6.554;2024-02-26T06:26:04;1;1;
40371;PMS5003;28564;53.346;-6.554;2024-02-26T06:28:32;1;1;
40371;PMS5003;28564;53.346;-6.554;2024-02-26T06:30:59;2;2;
40371;PMS5003;28564;53.346;-6.554;2024-02-26T06:33:27;3;2;
40371;PMS5003;28564;53.346;-6.554;2024-02-26T06:35:54;2;2;
40371;PMS5003;28564;53.346;-6.554;2024-02-26T06:38:21;2;2;
40371;PMS5003;28564;53.346;-6.554;2024-02-26T06:40:49;4;1;
40371;PMS5003;28564;53.346;-6.554;2024-02-26T06:43:16;1;1;
40371;PMS5003;28564;53.346;-6.554;2024-02-26T06:45:43;2;2;
40371;PMS5003;28564;53.346;-6.554;2024-02-26T06:48:10;4;4;
40371;PMS5003;28564;53.346;-6.554;2024-02-26T06:50:38;5;3;
40371;PMS5003;28564;53.346;-6.554;2024-02-26T06:53:05;3;3;
40371;PMS5003;28564;53.346;-6.554;2024-02-26T06:55:33;7;3;
40371;PMS5003;28564;53.346;-6.554;2024-02-26T06:58:00;3;3;
40371;PMS5003;28564;53.346;-6.554;2024-02-26T07:00:28;5;4;
40371;PMS5003;28564;53.346;-6.554;2024-02-26T07:02:55;4;4;
40371;PMS5003;28564;53.346;-6.554;2024-02-26T07:05:22;3;3;
40371;PMS5003;28564;53.346;-6.554;2024-02-26T07:07:50;3;3;
40371;PMS5003;28564;53.346;-6.554;2024-02-26T07:10:17;3;3;
40371;PMS5003;28564;53.346;-6.554;2024-02-26T07:12:45;2;1;
40371;PMS5003;28564;53.346;-6.554;2024-02-26T07:15:12;4;1;
40371;PMS5003;28564;53.346;-6.554;2024-02-26T07:17:40;2;2;
40371;PMS5003;28564;53.346;-6.554;2024-02-26T07:20:07;2;2;
40371;PMS5003;28564;53.346;-6.554;2024-02-26T07:22:35;2;2;
40371;PMS5003;28564;53.346;-6.554;2024-02-26T07:25:03;1;1;
40371;PMS5003;28564;53.346;-6.554;2024-02-26T07:27:31;1;1;
40371;PMS5003;28564;53.346;-6.554;2024-02-26T07:29:58;1;1;
40371;PMS5003;28564;53.346;-6.554;2024-02-26T07:32:26;4;2;
40371;PMS5003;28564;53.346;-6.554;2024-02-26T07:34:53;1;1;
40371;PMS5003;28564;53.346;-6.554;2024-02-26T07:37:20;4;1;
40371;PMS5003;28564;53.346;-6.554;2024-02-26T07:39:48;1;1;
40371;PMS5003;28564;53.346;-6.554;2024-02-26T07:42:15;2;2;
40371;PMS5003;28564;53.346;-6.554;2024-02-26T07:44:43;1;1;
40371;PMS5003;28564;53.346;-6.554;2024-02-26T07:47:10;1;1;
40371;PMS5003;28564;53.346;-6.554;2024-02-26T07:49:37;1;1;
40371;PMS5003;28564;53.346;-6.554;2024-02-26T07:52:06;1;1;
40371;PMS5003;28564;53.346;-6.554;2024-02-26T07:54:33;3;1;
40371;PMS5003;28564;53.346;-6.554;2024-02-26T07:57:01;4;3;
40371;PMS5003;28564;53.346;-6.554;2024-02-26T07:59:28;3;2;
40371;PMS5003;28564;53.346;-6.554;2024-02-26T08:01:55;4;3;
40371;PMS5003;28564;53.346;-6.554;2024-02-26T08:04:23;3;3;
40371;PMS5003;28564;53.346;-6.554;2024-02-26T08:06:50;3;2;
40371;PMS5003;28564;53.346;-6.554;2024-02-26T08:09:17;2;2;
40371;PMS5003;28564;53.346;-6.554;2024-02-26T08:11:45;1;1;
40371;PMS5003;28564;53.346;-6.554;2024-02-26T08:14:12;3;1;
40371;PMS5003;28564;53.346;-6.554;2024-02-26T08:16:39;0;0;
40371;PMS5003;28564;53.346;-6.554;2024-02-26T08:19:08;2;1;
40371;PMS5003;28564;53.346;-6.554;2024-02-26T08:21:35;2;1;
40371;PMS5003;28564;53.346;-6.554;2024-02-26T08:24:03;2;2;
40371;PMS5003;28564;53.346;-6.554;2024-02-26T08:26:31;2;2;
40371;PMS5003;28564;53.346;-6.554;2024-02-26T08:28:58;2;0;
40371;PMS5003;28564;53.346;-6.554;2024-02-26T08:31:26;1;1;
40371;PMS5003;28564;53.346;-6.554;2024-02-26T08:33:53;3;2;
40371;PMS5003;28564;53.346;-6.554;2024-02-26T08:36:20;2;0;
40371;PMS5003;28564;53.346;-6.554;2024-02-26T08:38:48;0;0;
40371;PMS5003;28564;53.346;-6.554;2024-02-26T08:41:15;2;2;
40371;PMS5003;28564;53.346;-6.554;2024-02-26T08:43:42;0;0;
40371;PMS5003;28564;53.346;-6.554;2024-02-26T08:46:10;1;1;
40371;PMS5003;28564;53.346;-6.554;2024-02-26T08:48:39;1;1;
40371;PMS5003;28564;53.346;-6.554;2024-02-26T08:51:07;1;1;
40371;PMS5003;28564;53.346;-6.554;2024-02-26T08:53:35;2;0;
40371;PMS5003;28564;53.346;-6.554;2024-02-26T08:56:03;3;2;
40371;PMS5003;28564;53.346;-6.554;2024-02-26T08:58:31;1;1;
40371;PMS5003;28564;53.346;-6.554;2024-02-26T09:00:58;0;0;
40371;PMS5003;28564;53.346;-6.554;2024-02-26T09:03:26;2;1;
40371;PMS5003;28564;53.346;-6.554;2024-02-26T09:05:54;0;0;
40371;PMS5003;28564;53.346;-6.554;2024-02-26T09:08:21;0;0;
40371;PMS5003;28564;53.346;-6.554;2024-02-26T09:10:49;1;1;
40371;PMS5003;28564;53.346;-6.554;2024-02-26T09:13:17;0;0;
40371;PMS5003;28564;53.346;-6.554;2024-02-26T09:15:44;0;0;
40371;PMS5003;28564;53.346;-6.554;2024-02-26T09:18:11;1;1;
40371;PMS5003;28564;53.346;-6.554;2024-02-26T09:20:39;1;1;
40371;PMS5003;28564;53.346;-6.554;2024-02-26T09:23:06;1;1;
40371;PMS5003;28564;53.346;-6.554;2024-02-26T09:25:39;2;2;
40371;PMS5003;28564;53.346;-6.554;2024-02-26T09:28:06;1;1;
40371;PMS5003;28564;53.346;-6.554;2024-02-26T09:30:33;0;0;
40371;PMS5003;28564;53.346;-6.554;2024-02-26T09:33:01;3;1;
40371;PMS5003;28564;53.346;-6.554;2024-02-26T09:35:28;2;0;
40371;PMS5003;28564;53.346;-6.554;2024-02-26T09:37:55;0;0;
40371;PMS5003;28564;53.346;-6.554;2024-02-26T09:40:23;3;2;
40371;PMS5003;28564;53.346;-6.554;2024-02-26T09:42:50;1;1;
40371;PMS5003;28564;53.346;-6.554;2024-02-26T09:45:26;1;1;
40371;PMS5003;28564;53.346;-6.554;2024-02-26T09:47:55;0;0;
40371;PMS5003;28564;53.346;-6.554;2024-02-26T09:50:22;1;0;
40371;PMS5003;28564;53.346;-6.554;2024-02-26T09:52:49;1;0;
40371;PMS5003;28564;53.346;-6.554;2024-02-26T09:55:18;1;1;
40371;PMS5003;28564;53.346;-6.554;2024-02-26T09:57:46;2;2;
40371;PMS5003;28564;53.346;-6.554;2024-02-26T10:00:17;2;1;
40371;PMS5003;28564;53.346;-6.554;2024-02-26T10:02:48;1;1;
40371;PMS5003;28564;53.346;-6.554;2024-02-26T10:05:16;0;0;
40371;PMS5003;28564;53.346;-6.554;2024-02-26T10:07:45;7;7;
40371;PMS5003;28564;53.346;-6.554;2024-02-26T10:10:13;2;1;
40371;PMS5003;28564;53.346;-6.554;2024-02-26T10:12:41;3;3;
40371;PMS5003;28564;53.346;-6.554;2024-02-26T10:15:08;2;2;
40371;PMS5003;28564;53.346;-6.554;2024-02-26T10:17:35;2;2;
40371;PMS5003;28564;53.346;-6.554;2024-02-26T10:20:11;1;1;
40371;PMS5003;28564;53.346;-6.554;2024-02-26T10:22:40;2;2;
40371;PMS5003;28564;53.346;-6.554;2024-02-26T10:25:08;2;2;
40371;PMS5003;28564;53.346;-6.554;2024-02-26T10:27:35;3;2;
40371;PMS5003;28564;53.346;-6.554;2024-02-26T10:30:03;3;2;
40371;PMS5003;28564;53.346;-6.554;2024-02-26T10:32:30;2;2;
40371;PMS5003;28564;53.346;-6.554;2024-02-26T10:34:59;1;1;
40371;PMS5003;28564;53.346;-6.554;2024-02-26T10:37:26;1;1;
40371;PMS5003;28564;53.346;-6.554;2024-02-26T10:39:53;2;2;
40371;PMS5003;28564;53.346;-6.554;2024-02-26T10:42:20;1;1;
40371;PMS5003;28564;53.346;-6.554;2024-02-26T10:44:48;8;2;
40371;PMS5003;28564;53.346;-6.554;2024-02-26T10:47:15;2;2;
40371;PMS5003;28564;53.346;-6.554;2024-02-26T10:49:45;2;1;
40371;PMS5003;28564;53.346;-6.554;2024-02-26T10:52:13;0;0;
40371;PMS5003;28564;53.346;-6.554;2024-02-26T10:54:41;0;0;
40371;PMS5003;28564;53.346;-6.554;2024-02-26T10:57:11;0;0;
40371;PMS5003;28564;53.346;-6.554;2024-02-26T10:59:39;3;0;
40371;PMS5003;28564;53.346;-6.554;2024-02-26T11:02:09;2;1;
40371;PMS5003;28564;53.346;-6.554;2024-02-26T11:04:38;1;1;
40371;PMS5003;28564;53.346;-6.554;2024-02-26T11:07:06;1;0;
40371;PMS5003;28564;53.346;-6.554;2024-02-26T11:09:36;1;0;
40371;PMS5003;28564;53.346;-6.554;2024-02-26T11:12:04;1;1;
40371;PMS5003;28564;53.346;-6.554;2024-02-26T11:14:32;0;0;
40371;PMS5003;28564;53.346;-6.554;2024-02-26T11:17:00;1;0;
40371;PMS5003;28564;53.346;-6.554;2024-02-26T11:19:28;2;1;
40371;PMS5003;28564;53.346;-6.554;2024-02-26T11:22:00;0;0;
40371;PMS5003;28564;53.346;-6.554;2024-02-26T11:24:27;0;0;
40371;PMS5003;28564;53.346;-6.554;2024-02-26T11:26:55;2;0;
40371;PMS5003;28564;53.346;-6.554;2024-02-26T11:29:27;2;0;
40371;PMS5003;28564;53.346;-6.554;2024-02-26T11:31:58;2;0;
40371;PMS5003;28564;53.346;-6.554;2024-02-26T11:34:27;0;0;
40371;PMS5003;28564;53.346;-6.554;2024-02-26T11:36:56;0;0;
40371;PMS5003;28564;53.346;-6.554;2024-02-26T11:39:23;0;0;
40371;PMS5003;28564;53.346;-6.554;2024-02-26T11:41:52;2;1;
40371;PMS5003;28564;53.346;-6.554;2024-02-26T11:44:28;1;0;
40371;PMS5003;28564;53.346;-6.554;2024-02-26T11:46:56;0;0;
40371;PMS5003;28564;53.346;-6.554;2024-02-26T11:49:31;2;1;
40371;PMS5003;28564;53.346;-6.554;2024-02-26T11:51:58;3;3;
40371;PMS5003;28564;53.346;-6.554;2024-02-26T11:54:57;2;2;
40371;PMS5003;28564;53.346;-6.554;2024-02-26T11:57:25;3;2;
40371;PMS5003;28564;53.346;-6.554;2024-02-26T11:59:53;3;1;
40371;PMS5003;28564;53.346;-6.554;2024-02-26T12:02:38;2;2;
40371;PMS5003;28564;53.346;-6.554;2024-02-26T12:05:07;2;1;
40371;PMS5003;28564;53.346;-6.554;2024-02-26T12:07:39;3;1;
40371;PMS5003;28564;53.346;-6.554;2024-02-26T12:10:39;2;0;
40371;PMS5003;28564;53.346;-6.554;2024-02-26T12:13:07;2;1;
40371;PMS5003;28564;53.346;-6.554;2024-02-26T12:15:37;1;1;
40371;PMS5003;28564;53.346;-6.554;2024-02-26T12:18:06;0;0;
40371;PMS5003;28564;53.346;-6.554;2024-02-26T12:20:34;1;1;
40371;PMS5003;28564;53.346;-6.554;2024-02-26T12:23:01;2;1;
40371;PMS5003;28564;53.346;-6.554;2024-02-26T12:25:30;1;1;
40371;PMS5003;28564;53.346;-6.554;2024-02-26T12:27:59;1;1;
40371;PMS5003;28564;53.346;-6.554;2024-02-26T12:30:27;1;1;
40371;PMS5003;28564;53.346;-6.554;2024-02-26T12:32:57;0;0;
40371;PMS5003;28564;53.346;-6.554;2024-02-26T12:35:25;0;0;
40371;PMS5003;28564;53.346;-6.554;2024-02-26T12:37:53;2;1;
40371;PMS5003;28564;53.346;-6.554;2024-02-26T12:40:21;2;1;
40371;PMS5003;28564;53.346;-6.554;2024-02-26T12:42:47;1;1;
40371;PMS5003;28564;53.346;-6.554;2024-02-26T12:45:15;1;1;
40371;PMS5003;28564;53.346;-6.554;2024-02-26T12:47:43;4;1;
40371;PMS5003;28564;53.346;-6.554;2024-02-26T12:50:11;2;1;
40371;PMS5003;28564;53.346;-6.554;2024-02-26T12:52:39;3;1;
40371;PMS5003;28564;53.346;-6.554;2024-02-26T12:55:11;13;12;
40371;PMS5003;28564;53.346;-6.554;2024-02-26T12:57:41;13;13;
40371;PMS5003;28564;53.346;-6.554;2024-02-26T13:00:11;33;33;
40371;PMS5003;28564;53.346;-6.554;2024-02-26T13:02:40;24;24;
40371;PMS5003;28564;53.346;-6.554;2024-02-26T13:05:08;44;44;
40371;PMS5003;28564;53.346;-6.554;2024-02-26T13:07:40;47;47;
40371;PMS5003;28564;53.346;-6.554;2024-02-26T13:10:08;3;3;
40371;PMS5003;28564;53.346;-6.554;2024-02-26T13:12:36;0;0;
40371;PMS5003;28564;53.346;-6.554;2024-02-26T13:15:03;3;2;
40371;PMS5003;28564;53.346;-6.554;2024-02-26T13:17:32;1;1;
40371;PMS5003;28564;53.346;-6.554;2024-02-26T13:19:59;0;0;
40371;PMS5003;28564;53.346;-6.554;2024-02-26T13:22:26;0;0;
40371;PMS5003;28564;53.346;-6.554;2024-02-26T13:24:54;2;2;
40371;PMS5003;28564;53.346;-6.554;2024-02-26T13:27:23;0;0;
40371;PMS5003;28564;53.346;-6.554;2024-02-26T13:30:01;0;0;
40371;PMS5003;28564;53.346;-6.554;2024-02-26T13:32:31;1;1;
40371;PMS5003;28564;53.346;-6.554;2024-02-26T13:35:07;0;0;
40371;PMS5003;28564;53.346;-6.554;2024-02-26T13:37:36;0;0;
40371;PMS5003;28564;53.346;-6.554;2024-02-26T13:40:05;0;0;
40371;PMS5003;28564;53.346;-6.554;2024-02-26T13:42:33;0;0;
40371;PMS5003;28564;53.346;-6.554;2024-02-26T13:45:01;1;0;
40371;PMS5003;28564;53.346;-6.554;2024-02-26T13:47:29;0;0;
40371;PMS5003;28564;53.346;-6.554;2024-02-26T13:49:56;0;0;
40371;PMS5003;28564;53.346;-6.554;2024-02-26T13:52:23;0;0;
40371;PMS5003;28564;53.346;-6.554;2024-02-26T13:54:51;0;0;
40371;PMS5003;28564;53.346;-6.554;2024-02-26T13:57:18;0;0;
40371;PMS5003;28564;53.346;-6.554;2024-02-26T13:59:46;0;0;
40371;PMS5003;28564;53.346;-6.554;2024-02-26T14:02:13;1;1;
40371;PMS5003;28564;53.346;-6.554;2024-02-26T14:04:40;5;3;
40371;PMS5003;28564;53.346;-6.554;2024-02-26T14:07:07;1;1;
40371;PMS5003;28564;53.346;-6.554;2024-02-26T14:09:37;1;0;
40371;PMS5003;28564;53.346;-6.554;2024-02-26T14:12:04;1;1;
40371;PMS5003;28564;53.346;-6.554;2024-02-26T14:14:32;2;1;
40371;PMS5003;28564;53.346;-6.554;2024-02-26T14:16:58;2;2;
40371;PMS5003;28564;53.346;-6.554;2024-02-26T14:19:26;0;0;
40371;PMS5003;28564;53.346;-6.554;2024-02-26T14:21:53;0;0;
40371;PMS5003;28564;53.346;-6.554;2024-02-26T14:24:20;0;0;
40371;PMS5003;28564;53.346;-6.554;2024-02-26T14:26:47;0;0;
40371;PMS5003;28564;53.346;-6.554;2024-02-26T14:29:15;2;0;
40371;PMS5003;28564;53.346;-6.554;2024-02-26T14:31:43;1;0;
40371;PMS5003;28564;53.346;-6.554;2024-02-26T14:34:10;0;0;
40371;PMS5003;28564;53.346;-6.554;2024-02-26T14:36:38;1;1;
40371;PMS5003;28564;53.346;-6.554;2024-02-26T14:39:06;0;0;
40371;PMS5003;28564;53.346;-6.554;2024-02-26T14:41:33;1;0;
40371;PMS5003;28564;53.346;-6.554;2024-02-26T14:44:01;0;0;
40371;PMS5003;28564;53.346;-6.554;2024-02-26T14:46:29;1;1;
40371;PMS5003;28564;53.346;-6.554;2024-02-26T14:48:56;1;1;
40371;PMS5003;28564;53.346;-6.554;2024-02-26T14:51:24;0;0;
40371;PMS5003;28564;53.346;-6.554;2024-02-26T14:53:57;0;0;
40371;PMS5003;28564;53.346;-6.554;2024-02-26T14:56:24;0;0;
40371;PMS5003;28564;53.346;-6.554;2024-02-26T14:58:52;0;0;
40371;PMS5003;28564;53.346;-6.554;2024-02-26T15:01:20;0;0;
40371;PMS5003;28564;53.346;-6.554;2024-02-26T15:03:47;0;0;
40371;PMS5003;28564;53.346;-6.554;2024-02-26T15:06:14;0;0;
40371;PMS5003;28564;53.346;-6.554;2024-02-26T15:08:41;0;0;
40371;PMS5003;28564;53.346;-6.554;2024-02-26T15:11:08;0;0;
40371;PMS5003;28564;53.346;-6.554;2024-02-26T15:13:35;0;0;
40371;PMS5003;28564;53.346;-6.554;2024-02-26T15:16:03;0;0;
40371;PMS5003;28564;53.346;-6.554;2024-02-26T15:18:31;1;0;
40371;PMS5003;28564;53.346;-6.554;2024-02-26T15:20:58;2;0;
40371;PMS5003;28564;53.346;-6.554;2024-02-26T15:23:24;0;0;
40371;PMS5003;28564;53.346;-6.554;2024-02-26T15:25:51;2;2;
40371;PMS5003;28564;53.346;-6.554;2024-02-26T15:28:19;0;0;
40371;PMS5003;28564;53.346;-6.554;2024-02-26T15:30:46;2;2;
40371;PMS5003;28564;53.346;-6.554;2024-02-26T15:33:13;1;1;
40371;PMS5003;28564;53.346;-6.554;2024-02-26T15:35:40;0;0;
40371;PMS5003;28564;53.346;-6.554;2024-02-26T15:38:08;2;2;
40371;PMS5003;28564;53.346;-6.554;2024-02-26T15:40:35;1;1;
40371;PMS5003;28564;53.346;-6.554;2024-02-26T15:43:02;0;0;
40371;PMS5003;28564;53.346;-6.554;2024-02-26T15:45:29;0;0;
40371;PMS5003;28564;53.346;-6.554;2024-02-26T15:47:56;0;0;
40371;PMS5003;28564;53.346;-6.554;2024-02-26T15:50:23;0;0;
40371;PMS5003;28564;53.346;-6.554;2024-02-26T15:52:50;0;0;
40371;PMS5003;28564;53.346;-6.554;2024-02-26T15:55:18;0;0;
40371;PMS5003;28564;53.346;-6.554;2024-02-26T15:57:45;2;2;
40371;PMS5003;28564;53.346;-6.554;2024-02-26T16:00:13;5;1;
40371;PMS5003;28564;53.346;-6.554;2024-02-26T16:02:41;2;1;
40371;PMS5003;28564;53.346;-6.554;2024-02-26T16:05:08;1;1;
40371;PMS5003;28564;53.346;-6.554;2024-02-26T16:07:37;2;1;
40371;PMS5003;28564;53.346;-6.554;2024-02-26T16:10:08;1;0;
40371;PMS5003;28564;53.346;-6.554;2024-02-26T16:12:36;2;1;
40371;PMS5003;28564;53.346;-6.554;2024-02-26T16:15:06;1;1;
40371;PMS5003;28564;53.346;-6.554;2024-02-26T16:17:35;2;2;
40371;PMS5003;28564;53.346;-6.554;2024-02-26T16:20:06;9;8;
40371;PMS5003;28564;53.346;-6.554;2024-02-26T16:22:34;4;2;
40371;PMS5003;28564;53.346;-6.554;2024-02-26T16:25:01;5;5;
40371;PMS5003;28564;53.346;-6.554;2024-02-26T16:27:28;24;24;
40371;PMS5003;28564;53.346;-6.554;2024-02-26T16:29:56;15;15;
40371;PMS5003;28564;53.346;-6.554;2024-02-26T16:32:24;17;15;